KHYW

Conway-Horry County Airport

Conway, South Carolina, USA
METAR KHYW 220735Z AUTO 00000KT 7SM CLR 02/02 A3030 RMK AO2
Observed Flight Rules
Oct-22 @ 07:35 UTC (29 minutes ago) Visual Flight Rules
Visibility Clouds
7 miles
  • Clear skies
Temperatures Readings
Current 2°C / 36°F
Dewpoint 2°C / 36°F
Humidity 100%
Altimeter 30.3" Hg
Pressure 1026 hPa
Elevation 11
METAR KHYW 220735Z AUTO 00000KT 7SM CLR 02/02 A3030 RMK AO2
Observed Flight Rules
Oct-22 @ 07:35 UTC
(29 minutes ago)
VFR
Clouds
  • Clear skies
Temperature Dewpoint
2°C / 36°F 2°C / 36°F
Humidity Altimeter Pressure
100% 30.3" Hg 1026 hPa